Главная страница
METAR-TAF:

METAR-TAF

Аэропорты :

Рабат, Марокко

широта: 34-03N, долгота: 006-46W, высота над уровнем моря: 84 м

Текущие метеонаблюдения

Эта сводка был подготовлена 20 минут назад, в 03:30 UTC
Ветер 5 Узел от южный-юго-западный
Температура 15°C
Влажность 94%
Давление 1018 hPa
Видимость: 8000 м
Рассеянная облачность на высоте 1700 фута

METAR: GMME 100330Z 21005KT 8000 BKN017 15/14 Q1018 NOSIG

Время: 04:50 (03:50 UTC)

Прогноз

Эта сводка был подготовлена 4 часа и 50 минут назад, в 23:00 UTC
Прогноз действительный с 10-го 00 UTC до 11-го 06 UTC
Ветер 8 Узел от юго-западный
Видимость: 8000 м
Сплошная облачность на высоте 1500 фута
изменения
С 10-го 02 UTC до 10-го 06 UTC
Ветер 2 Узел переменных направлений
временами
С 10-го 06 UTC до 10-го 12 UTC
Ветер 5 Узел от северо-западный
изменения
С 10-го 14 UTC до 10-го 18 UTC
Ветер 12 Узел от северный

TAF: GMME 092300Z 1000/1106 22008KT 8000 OVC015 BECMG 1002/1006 VRB02KT TEMPO 1006/1012 32005KT BECMG 1014/1018 36012KT

Метеонаблюдения и прогнозы для более 4000 аэропортов (сводки METAR и TAF).

Имеющиеся станции представлены на карте желтыми и красными точками.

Чтобы увидеть название станции, наведите на нее мышь.

Затем щелкните, чтобы увидеть метеонаблюдения и метеопрогнозы.

Управление картой: чтобы увеличить масштаб, щелкните зеленые кнопки с черным крестиком; чтобы уменьшить масштаб, щелкните зеленую кнопку с тире; для просмотра соседних карт щелкайте зеленые стрелки.


METAR-TAF: